sensor_id;sensor_type;location;lat;lon;timestamp;P1;durP1;ratioP1;P2;durP2;ratioP2
36651;SDS011;53334;51.976;20.144;2022-09-09T00:01:08;13.43;;;7.10;;
36651;SDS011;53334;51.976;20.144;2022-09-09T00:04:05;10.75;;;7.18;;
36651;SDS011;53334;51.976;20.144;2022-09-09T00:06:49;9.18;;;6.50;;
36651;SDS011;53334;51.976;20.144;2022-09-09T00:09:38;13.05;;;6.85;;
36651;SDS011;53334;51.976;20.144;2022-09-09T00:12:22;9.48;;;7.20;;
36651;SDS011;53334;51.976;20.144;2022-09-09T00:15:05;8.55;;;6.80;;
36651;SDS011;53334;51.976;20.144;2022-09-09T00:17:46;9.07;;;6.43;;
36651;SDS011;53334;51.976;20.144;2022-09-09T00:20:28;7.43;;;6.43;;
36651;SDS011;53334;51.976;20.144;2022-09-09T00:23:09;10.18;;;6.70;;
36651;SDS011;53334;51.976;20.144;2022-09-09T00:25:51;12.30;;;6.78;;
36651;SDS011;53334;51.976;20.144;2022-09-09T00:28:36;10.20;;;6.65;;
36651;SDS011;53334;51.976;20.144;2022-09-09T00:31:15;10.80;;;7.63;;
36651;SDS011;53334;51.976;20.144;2022-09-09T00:33:55;11.38;;;7.00;;
36651;SDS011;53334;51.976;20.144;2022-09-09T00:36:36;14.77;;;7.60;;
36651;SDS011;53334;51.976;20.144;2022-09-09T00:39:18;12.77;;;6.78;;
36651;SDS011;53334;51.976;20.144;2022-09-09T00:42:01;10.52;;;7.93;;
36651;SDS011;53334;51.976;20.144;2022-09-09T00:44:51;14.50;;;7.15;;
36651;SDS011;53334;51.976;20.144;2022-09-09T00:47:39;10.07;;;8.23;;
36651;SDS011;53334;51.976;20.144;2022-09-09T00:50:21;9.60;;;6.95;;
36651;SDS011;53334;51.976;20.144;2022-09-09T00:53:21;11.13;;;7.15;;
36651;SDS011;53334;51.976;20.144;2022-09-09T00:56:07;13.88;;;7.28;;
36651;SDS011;53334;51.976;20.144;2022-09-09T00:58:49;10.07;;;6.68;;
36651;SDS011;53334;51.976;20.144;2022-09-09T01:01:30;10.48;;;6.80;;
36651;SDS011;53334;51.976;20.144;2022-09-09T01:04:04;9.73;;;7.22;;
36651;SDS011;53334;51.976;20.144;2022-09-09T01:06:49;9.55;;;7.35;;
36651;SDS011;53334;51.976;20.144;2022-09-09T01:09:29;13.90;;;6.93;;
36651;SDS011;53334;51.976;20.144;2022-09-09T01:12:11;11.38;;;7.47;;
36651;SDS011;53334;51.976;20.144;2022-09-09T01:14:56;11.07;;;7.13;;
36651;SDS011;53334;51.976;20.144;2022-09-09T01:17:46;14.27;;;8.07;;
36651;SDS011;53334;51.976;20.144;2022-09-09T01:20:27;14.07;;;8.70;;
36651;SDS011;53334;51.976;20.144;2022-09-09T01:23:11;12.57;;;7.53;;
36651;SDS011;53334;51.976;20.144;2022-09-09T01:26:22;12.57;;;7.53;;
36651;SDS011;53334;51.976;20.144;2022-09-09T01:29:02;9.82;;;6.97;;
36651;SDS011;53334;51.976;20.144;2022-09-09T01:31:51;10.52;;;8.27;;
36651;SDS011;53334;51.976;20.144;2022-09-09T01:34:28;11.57;;;7.03;;
36651;SDS011;53334;51.976;20.144;2022-09-09T01:37:07;11.55;;;8.00;;
36651;SDS011;53334;51.976;20.144;2022-09-09T01:39:43;12.45;;;8.40;;
36651;SDS011;53334;51.976;20.144;2022-09-09T01:42:22;11.70;;;8.18;;
36651;SDS011;53334;51.976;20.144;2022-09-09T01:44:56;15.23;;;8.40;;
36651;SDS011;53334;51.976;20.144;2022-09-09T01:47:30;10.13;;;6.93;;
36651;SDS011;53334;51.976;20.144;2022-09-09T01:50:23;13.55;;;6.95;;
36651;SDS011;53334;51.976;20.144;2022-09-09T01:52:59;11.73;;;7.18;;
36651;SDS011;53334;51.976;20.144;2022-09-09T01:55:37;10.27;;;8.13;;
36651;SDS011;53334;51.976;20.144;2022-09-09T01:58:22;11.60;;;7.43;;
36651;SDS011;53334;51.976;20.144;2022-09-09T02:01:06;10.02;;;7.45;;
36651;SDS011;53334;51.976;20.144;2022-09-09T02:03:47;9.80;;;7.15;;
36651;SDS011;53334;51.976;20.144;2022-09-09T02:06:27;10.40;;;7.97;;
36651;SDS011;53334;51.976;20.144;2022-09-09T02:09:14;15.77;;;7.75;;
36651;SDS011;53334;51.976;20.144;2022-09-09T02:11:57;11.13;;;7.65;;
36651;SDS011;53334;51.976;20.144;2022-09-09T02:14:46;10.57;;;6.93;;
36651;SDS011;53334;51.976;20.144;2022-09-09T02:17:26;12.80;;;7.80;;
36651;SDS011;53334;51.976;20.144;2022-09-09T02:20:13;10.57;;;7.43;;
36651;SDS011;53334;51.976;20.144;2022-09-09T02:22:56;14.18;;;8.93;;
36651;SDS011;53334;51.976;20.144;2022-09-09T02:25:32;11.30;;;7.35;;
36651;SDS011;53334;51.976;20.144;2022-09-09T02:28:19;9.45;;;7.38;;
36651;SDS011;53334;51.976;20.144;2022-09-09T02:30:58;10.50;;;7.22;;
36651;SDS011;53334;51.976;20.144;2022-09-09T02:33:42;11.98;;;8.05;;
36651;SDS011;53334;51.976;20.144;2022-09-09T02:36:20;10.77;;;7.32;;
36651;SDS011;53334;51.976;20.144;2022-09-09T02:39:01;11.32;;;7.85;;
36651;SDS011;53334;51.976;20.144;2022-09-09T02:41:40;11.55;;;7.47;;
36651;SDS011;53334;51.976;20.144;2022-09-09T02:44:16;13.45;;;8.18;;
36651;SDS011;53334;51.976;20.144;2022-09-09T02:47:00;9.25;;;6.93;;
36651;SDS011;53334;51.976;20.144;2022-09-09T02:49:56;10.45;;;7.72;;
36651;SDS011;53334;51.976;20.144;2022-09-09T02:52:40;9.15;;;7.38;;
36651;SDS011;53334;51.976;20.144;2022-09-09T02:55:27;11.80;;;7.80;;
36651;SDS011;53334;51.976;20.144;2022-09-09T02:58:15;13.68;;;8.00;;
36651;SDS011;53334;51.976;20.144;2022-09-09T03:01:00;13.55;;;8.30;;
36651;SDS011;53334;51.976;20.144;2022-09-09T03:03:37;12.48;;;8.02;;
36651;SDS011;53334;51.976;20.144;2022-09-09T03:06:15;11.27;;;7.38;;
36651;SDS011;53334;51.976;20.144;2022-09-09T03:08:54;12.25;;;7.20;;
36651;SDS011;53334;51.976;20.144;2022-09-09T03:11:30;17.63;;;8.43;;
36651;SDS011;53334;51.976;20.144;2022-09-09T03:14:04;9.88;;;6.82;;
36651;SDS011;53334;51.976;20.144;2022-09-09T03:16:40;10.00;;;7.30;;
36651;SDS011;53334;51.976;20.144;2022-09-09T03:19:17;10.18;;;7.32;;
36651;SDS011;53334;51.976;20.144;2022-09-09T03:21:51;10.10;;;7.28;;
36651;SDS011;53334;51.976;20.144;2022-09-09T03:24:25;9.52;;;7.22;;
36651;SDS011;53334;51.976;20.144;2022-09-09T03:26:59;11.48;;;7.32;;
36651;SDS011;53334;51.976;20.144;2022-09-09T03:29:34;9.07;;;7.40;;
36651;SDS011;53334;51.976;20.144;2022-09-09T03:32:12;8.45;;;7.30;;
36651;SDS011;53334;51.976;20.144;2022-09-09T03:34:51;10.25;;;7.38;;
36651;SDS011;53334;51.976;20.144;2022-09-09T03:37:25;10.27;;;6.75;;
36651;SDS011;53334;51.976;20.144;2022-09-09T03:40:00;14.77;;;7.55;;
36651;SDS011;53334;51.976;20.144;2022-09-09T03:42:35;8.75;;;6.70;;
36651;SDS011;53334;51.976;20.144;2022-09-09T03:45:09;9.27;;;7.10;;
36651;SDS011;53334;51.976;20.144;2022-09-09T03:47:45;10.48;;;6.68;;
36651;SDS011;53334;51.976;20.144;2022-09-09T03:50:20;9.10;;;7.30;;
36651;SDS011;53334;51.976;20.144;2022-09-09T03:52:56;8.98;;;7.03;;
36651;SDS011;53334;51.976;20.144;2022-09-09T03:55:30;9.30;;;6.22;;
36651;SDS011;53334;51.976;20.144;2022-09-09T03:58:05;12.15;;;6.35;;
36651;SDS011;53334;51.976;20.144;2022-09-09T04:00:39;8.85;;;6.22;;
36651;SDS011;53334;51.976;20.144;2022-09-09T04:03:14;10.90;;;7.28;;
36651;SDS011;53334;51.976;20.144;2022-09-09T04:05:50;10.98;;;6.68;;
36651;SDS011;53334;51.976;20.144;2022-09-09T04:08:25;7.18;;;6.10;;
36651;SDS011;53334;51.976;20.144;2022-09-09T04:10:59;11.07;;;6.78;;
36651;SDS011;53334;51.976;20.144;2022-09-09T04:13:39;9.77;;;6.15;;
36651;SDS011;53334;51.976;20.144;2022-09-09T04:16:16;9.02;;;6.38;;
36651;SDS011;53334;51.976;20.144;2022-09-09T04:18:50;8.98;;;6.60;;
36651;SDS011;53334;51.976;20.144;2022-09-09T04:21:26;8.10;;;6.57;;
36651;SDS011;53334;51.976;20.144;2022-09-09T04:24:00;11.13;;;6.30;;
36651;SDS011;53334;51.976;20.144;2022-09-09T04:26:35;8.68;;;5.72;;
36651;SDS011;53334;51.976;20.144;2022-09-09T04:29:09;11.48;;;6.60;;
36651;SDS011;53334;51.976;20.144;2022-09-09T04:31:44;11.57;;;6.63;;
36651;SDS011;53334;51.976;20.144;2022-09-09T04:34:18;15.40;;;6.57;;
36651;SDS011;53334;51.976;20.144;2022-09-09T04:36:54;8.57;;;5.45;;
36651;SDS011;53334;51.976;20.144;2022-09-09T04:39:29;9.50;;;6.18;;
36651;SDS011;53334;51.976;20.144;2022-09-09T04:42:04;7.18;;;5.53;;
36651;SDS011;53334;51.976;20.144;2022-09-09T04:44:39;8.52;;;5.95;;
36651;SDS011;53334;51.976;20.144;2022-09-09T04:47:12;11.80;;;6.80;;
36651;SDS011;53334;51.976;20.144;2022-09-09T04:49:47;10.75;;;6.50;;
36651;SDS011;53334;51.976;20.144;2022-09-09T04:52:29;13.05;;;7.18;;
36651;SDS011;53334;51.976;20.144;2022-09-09T04:55:04;10.15;;;6.10;;
36651;SDS011;53334;51.976;20.144;2022-09-09T04:57:39;10.30;;;6.32;;
36651;SDS011;53334;51.976;20.144;2022-09-09T05:00:16;12.88;;;6.60;;
36651;SDS011;53334;51.976;20.144;2022-09-09T05:02:51;12.23;;;6.72;;
36651;SDS011;53334;51.976;20.144;2022-09-09T05:05:25;14.60;;;7.38;;
36651;SDS011;53334;51.976;20.144;2022-09-09T05:08:04;16.38;;;6.43;;
36651;SDS011;53334;51.976;20.144;2022-09-09T05:10:40;11.25;;;6.13;;
36651;SDS011;53334;51.976;20.144;2022-09-09T05:13:14;9.00;;;6.63;;
36651;SDS011;53334;51.976;20.144;2022-09-09T05:15:51;7.50;;;6.38;;
36651;SDS011;53334;51.976;20.144;2022-09-09T05:18:26;12.50;;;6.60;;
36651;SDS011;53334;51.976;20.144;2022-09-09T05:21:03;10.82;;;6.05;;
36651;SDS011;53334;51.976;20.144;2022-09-09T05:23:39;9.50;;;6.55;;
36651;SDS011;53334;51.976;20.144;2022-09-09T05:26:16;15.00;;;6.05;;
36651;SDS011;53334;51.976;20.144;2022-09-09T05:28:53;16.35;;;6.40;;
36651;SDS011;53334;51.976;20.144;2022-09-09T05:31:29;16.55;;;7.18;;
36651;SDS011;53334;51.976;20.144;2022-09-09T05:34:07;22.45;;;6.70;;
36651;SDS011;53334;51.976;20.144;2022-09-09T05:36:41;9.40;;;6.38;;
36651;SDS011;53334;51.976;20.144;2022-09-09T05:39:18;12.13;;;6.25;;
36651;SDS011;53334;51.976;20.144;2022-09-09T05:41:53;13.35;;;6.57;;
36651;SDS011;53334;51.976;20.144;2022-09-09T05:44:27;13.00;;;6.97;;
36651;SDS011;53334;51.976;20.144;2022-09-09T05:47:02;13.60;;;7.03;;
36651;SDS011;53334;51.976;20.144;2022-09-09T05:49:36;15.13;;;6.95;;
36651;SDS011;53334;51.976;20.144;2022-09-09T05:52:10;13.95;;;7.05;;
36651;SDS011;53334;51.976;20.144;2022-09-09T05:54:47;14.40;;;6.18;;
36651;SDS011;53334;51.976;20.144;2022-09-09T05:57:21;10.45;;;5.97;;
36651;SDS011;53334;51.976;20.144;2022-09-09T05:59:55;16.60;;;7.53;;
36651;SDS011;53334;51.976;20.144;2022-09-09T06:02:54;10.90;;;7.22;;
36651;SDS011;53334;51.976;20.144;2022-09-09T06:05:29;16.17;;;8.23;;
36651;SDS011;53334;51.976;20.144;2022-09-09T06:08:04;11.45;;;8.00;;
36651;SDS011;53334;51.976;20.144;2022-09-09T06:10:39;13.57;;;8.27;;
36651;SDS011;53334;51.976;20.144;2022-09-09T06:13:13;24.08;;;9.32;;
36651;SDS011;53334;51.976;20.144;2022-09-09T06:15:52;17.88;;;9.60;;
36651;SDS011;53334;51.976;20.144;2022-09-09T06:18:26;20.15;;;9.40;;
36651;SDS011;53334;51.976;20.144;2022-09-09T06:21:02;22.23;;;9.40;;
36651;SDS011;53334;51.976;20.144;2022-09-09T06:23:39;16.23;;;9.52;;
36651;SDS011;53334;51.976;20.144;2022-09-09T06:26:16;17.00;;;9.05;;
36651;SDS011;53334;51.976;20.144;2022-09-09T06:28:54;20.58;;;10.75;;
36651;SDS011;53334;51.976;20.144;2022-09-09T06:31:30;17.83;;;10.88;;
36651;SDS011;53334;51.976;20.144;2022-09-09T06:34:18;26.73;;;10.95;;
36651;SDS011;53334;51.976;20.144;2022-09-09T06:36:57;19.83;;;11.27;;
36651;SDS011;53334;51.976;20.144;2022-09-09T06:39:37;18.85;;;10.63;;
36651;SDS011;53334;51.976;20.144;2022-09-09T06:42:14;24.52;;;11.65;;
36651;SDS011;53334;51.976;20.144;2022-09-09T06:44:53;21.05;;;11.20;;
36651;SDS011;53334;51.976;20.144;2022-09-09T06:47:41;16.52;;;10.93;;
36651;SDS011;53334;51.976;20.144;2022-09-09T06:50:15;20.85;;;11.35;;
36651;SDS011;53334;51.976;20.144;2022-09-09T06:52:50;25.98;;;12.30;;
36651;SDS011;53334;51.976;20.144;2022-09-09T06:55:24;32.55;;;13.98;;
36651;SDS011;53334;51.976;20.144;2022-09-09T06:58:00;34.03;;;14.15;;
36651;SDS011;53334;51.976;20.144;2022-09-09T07:00:34;34.53;;;15.23;;
36651;SDS011;53334;51.976;20.144;2022-09-09T07:03:09;28.65;;;15.85;;
36651;SDS011;53334;51.976;20.144;2022-09-09T07:05:53;37.67;;;16.02;;
36651;SDS011;53334;51.976;20.144;2022-09-09T07:08:30;37.22;;;16.48;;
36651;SDS011;53334;51.976;20.144;2022-09-09T07:11:05;33.70;;;16.65;;
36651;SDS011;53334;51.976;20.144;2022-09-09T07:13:47;44.67;;;17.58;;
36651;SDS011;53334;51.976;20.144;2022-09-09T07:16:22;51.03;;;18.23;;
36651;SDS011;53334;51.976;20.144;2022-09-09T07:18:56;40.35;;;17.60;;
36651;SDS011;53334;51.976;20.144;2022-09-09T07:21:31;35.95;;;16.52;;
36651;SDS011;53334;51.976;20.144;2022-09-09T07:24:06;35.85;;;16.30;;
36651;SDS011;53334;51.976;20.144;2022-09-09T07:26:44;31.52;;;15.25;;
36651;SDS011;53334;51.976;20.144;2022-09-09T07:29:19;31.65;;;16.08;;
36651;SDS011;53334;51.976;20.144;2022-09-09T07:31:55;28.90;;;15.90;;
36651;SDS011;53334;51.976;20.144;2022-09-09T07:34:35;34.42;;;14.88;;
36651;SDS011;53334;51.976;20.144;2022-09-09T07:37:10;34.25;;;15.85;;
36651;SDS011;53334;51.976;20.144;2022-09-09T07:39:47;37.05;;;17.38;;
36651;SDS011;53334;51.976;20.144;2022-09-09T07:42:23;36.17;;;16.27;;
36651;SDS011;53334;51.976;20.144;2022-09-09T07:44:59;39.72;;;17.25;;
36651;SDS011;53334;51.976;20.144;2022-09-09T07:47:33;35.20;;;15.57;;
36651;SDS011;53334;51.976;20.144;2022-09-09T07:50:08;31.67;;;15.73;;
36651;SDS011;53334;51.976;20.144;2022-09-09T07:52:43;28.92;;;14.82;;
36651;SDS011;53334;51.976;20.144;2022-09-09T07:55:17;34.17;;;16.52;;
36651;SDS011;53334;51.976;20.144;2022-09-09T07:57:52;39.15;;;17.02;;
36651;SDS011;53334;51.976;20.144;2022-09-09T08:00:28;32.70;;;17.17;;
36651;SDS011;53334;51.976;20.144;2022-09-09T08:03:05;42.55;;;17.92;;
36651;SDS011;53334;51.976;20.144;2022-09-09T08:05:39;36.28;;;15.77;;
36651;SDS011;53334;51.976;20.144;2022-09-09T08:08:15;31.90;;;16.67;;
36651;SDS011;53334;51.976;20.144;2022-09-09T08:10:49;33.70;;;18.10;;
36651;SDS011;53334;51.976;20.144;2022-09-09T08:13:25;31.67;;;18.80;;
36651;SDS011;53334;51.976;20.144;2022-09-09T08:16:08;36.08;;;19.02;;
36651;SDS011;53334;51.976;20.144;2022-09-09T08:18:44;35.78;;;17.65;;
36651;SDS011;53334;51.976;20.144;2022-09-09T08:21:20;27.70;;;16.73;;
36651;SDS011;53334;51.976;20.144;2022-09-09T08:23:57;33.60;;;19.52;;
36651;SDS011;53334;51.976;20.144;2022-09-09T08:26:33;29.48;;;17.67;;
36651;SDS011;53334;51.976;20.144;2022-09-09T08:29:10;31.83;;;17.27;;
36651;SDS011;53334;51.976;20.144;2022-09-09T08:31:47;36.92;;;19.42;;
36651;SDS011;53334;51.976;20.144;2022-09-09T08:34:23;34.80;;;18.02;;
36651;SDS011;53334;51.976;20.144;2022-09-09T08:37:01;33.35;;;18.90;;
36651;SDS011;53334;51.976;20.144;2022-09-09T08:39:41;31.27;;;18.40;;
36651;SDS011;53334;51.976;20.144;2022-09-09T08:42:22;33.90;;;18.55;;
36651;SDS011;53334;51.976;20.144;2022-09-09T08:45:20;33.25;;;18.80;;
36651;SDS011;53334;51.976;20.144;2022-09-09T08:48:10;32.17;;;18.98;;
36651;SDS011;53334;51.976;20.144;2022-09-09T08:50:55;30.52;;;18.08;;
36651;SDS011;53334;51.976;20.144;2022-09-09T08:53:38;33.05;;;18.25;;
36651;SDS011;53334;51.976;20.144;2022-09-09T08:56:16;38.60;;;20.38;;
36651;SDS011;53334;51.976;20.144;2022-09-09T08:58:59;38.67;;;19.08;;
36651;SDS011;53334;51.976;20.144;2022-09-09T09:01:43;31.33;;;19.05;;
36651;SDS011;53334;51.976;20.144;2022-09-09T09:04:39;32.20;;;19.10;;
36651;SDS011;53334;51.976;20.144;2022-09-09T09:07:28;31.00;;;18.27;;
36651;SDS011;53334;51.976;20.144;2022-09-09T09:10:12;43.28;;;19.85;;
36651;SDS011;53334;51.976;20.144;2022-09-09T09:13:15;34.53;;;19.88;;
36651;SDS011;53334;51.976;20.144;2022-09-09T09:15:55;39.30;;;19.25;;
36651;SDS011;53334;51.976;20.144;2022-09-09T09:18:36;33.30;;;19.33;;
36651;SDS011;53334;51.976;20.144;2022-09-09T09:21:14;31.73;;;20.08;;
36651;SDS011;53334;51.976;20.144;2022-09-09T09:23:54;29.17;;;18.55;;
36651;SDS011;53334;51.976;20.144;2022-09-09T09:26:33;29.75;;;19.02;;
36651;SDS011;53334;51.976;20.144;2022-09-09T09:29:11;32.10;;;20.05;;
36651;SDS011;53334;51.976;20.144;2022-09-09T09:31:48;29.00;;;18.40;;
36651;SDS011;53334;51.976;20.144;2022-09-09T09:34:27;32.13;;;19.45;;
36651;SDS011;53334;51.976;20.144;2022-09-09T09:37:07;31.58;;;18.23;;
36651;SDS011;53334;51.976;20.144;2022-09-09T09:39:49;35.60;;;19.23;;
36651;SDS011;53334;51.976;20.144;2022-09-09T09:42:46;27.90;;;19.10;;
36651;SDS011;53334;51.976;20.144;2022-09-09T09:45:27;33.72;;;18.77;;
36651;SDS011;53334;51.976;20.144;2022-09-09T09:48:08;26.37;;;18.67;;
36651;SDS011;53334;51.976;20.144;2022-09-09T09:50:48;33.03;;;18.42;;
36651;SDS011;53334;51.976;20.144;2022-09-09T09:53:26;37.35;;;20.17;;
36651;SDS011;53334;51.976;20.144;2022-09-09T09:56:04;31.20;;;18.65;;
36651;SDS011;53334;51.976;20.144;2022-09-09T09:58:47;31.90;;;18.30;;
36651;SDS011;53334;51.976;20.144;2022-09-09T10:01:28;30.48;;;18.77;;
36651;SDS011;53334;51.976;20.144;2022-09-09T10:04:14;35.00;;;18.90;;
36651;SDS011;53334;51.976;20.144;2022-09-09T10:06:51;25.50;;;17.20;;
36651;SDS011;53334;51.976;20.144;2022-09-09T10:09:27;25.70;;;16.98;;
36651;SDS011;53334;51.976;20.144;2022-09-09T10:12:05;25.88;;;17.23;;
36651;SDS011;53334;51.976;20.144;2022-09-09T10:14:50;27.58;;;16.52;;
36651;SDS011;53334;51.976;20.144;2022-09-09T10:17:35;25.80;;;16.60;;
36651;SDS011;53334;51.976;20.144;2022-09-09T10:27:01;25.40;;;16.40;;
36651;SDS011;53334;51.976;20.144;2022-09-09T10:29:49;34.08;;;17.42;;
36651;SDS011;53334;51.976;20.144;2022-09-09T10:32:36;26.58;;;17.25;;
36651;SDS011;53334;51.976;20.144;2022-09-09T10:35:17;26.40;;;17.75;;
36651;SDS011;53334;51.976;20.144;2022-09-09T10:38:10;26.30;;;17.48;;
36651;SDS011;53334;51.976;20.144;2022-09-09T10:41:00;24.52;;;15.90;;
36651;SDS011;53334;51.976;20.144;2022-09-09T10:46:57;24.83;;;16.15;;
36651;SDS011;53334;51.976;20.144;2022-09-09T10:50:06;35.22;;;16.52;;
36651;SDS011;53334;51.976;20.144;2022-09-09T10:52:53;22.95;;;16.00;;
36651;SDS011;53334;51.976;20.144;2022-09-09T10:55:35;24.50;;;15.00;;
36651;SDS011;53334;51.976;20.144;2022-09-09T10:58:14;21.85;;;14.15;;
36651;SDS011;53334;51.976;20.144;2022-09-09T11:00:55;25.25;;;12.90;;
36651;SDS011;53334;51.976;20.144;2022-09-09T11:03:34;20.40;;;13.02;;
36651;SDS011;53334;51.976;20.144;2022-09-09T11:06:13;24.08;;;13.43;;
36651;SDS011;53334;51.976;20.144;2022-09-09T11:08:51;19.48;;;13.73;;
36651;SDS011;53334;51.976;20.144;2022-09-09T11:11:29;17.67;;;12.23;;
36651;SDS011;53334;51.976;20.144;2022-09-09T11:14:09;19.75;;;12.15;;
36651;SDS011;53334;51.976;20.144;2022-09-09T11:16:51;17.20;;;11.88;;
36651;SDS011;53334;51.976;20.144;2022-09-09T11:19:30;18.33;;;12.48;;
36651;SDS011;53334;51.976;20.144;2022-09-09T11:22:08;16.95;;;12.25;;
36651;SDS011;53334;51.976;20.144;2022-09-09T11:24:51;22.20;;;12.98;;
36651;SDS011;53334;51.976;20.144;2022-09-09T11:27:33;16.45;;;11.68;;
36651;SDS011;53334;51.976;20.144;2022-09-09T11:30:18;20.42;;;12.35;;
36651;SDS011;53334;51.976;20.144;2022-09-09T11:33:22;15.75;;;12.00;;
36651;SDS011;53334;51.976;20.144;2022-09-09T11:39:59;23.20;;;12.70;;
36651;SDS011;53334;51.976;20.144;2022-09-09T11:42:46;17.70;;;12.57;;
36651;SDS011;53334;51.976;20.144;2022-09-09T11:45:23;18.15;;;12.05;;
36651;SDS011;53334;51.976;20.144;2022-09-09T11:48:00;17.13;;;12.02;;
36651;SDS011;53334;51.976;20.144;2022-09-09T11:50:37;16.60;;;10.68;;
36651;SDS011;53334;51.976;20.144;2022-09-09T11:53:19;19.02;;;10.95;;
36651;SDS011;53334;51.976;20.144;2022-09-09T11:56:01;20.85;;;11.10;;
36651;SDS011;53334;51.976;20.144;2022-09-09T11:58:39;16.25;;;10.95;;
36651;SDS011;53334;51.976;20.144;2022-09-09T12:01:24;22.38;;;11.38;;
36651;SDS011;53334;51.976;20.144;2022-09-09T12:04:11;14.68;;;10.55;;
36651;SDS011;53334;51.976;20.144;2022-09-09T12:07:03;14.75;;;10.93;;
36651;SDS011;53334;51.976;20.144;2022-09-09T12:09:55;15.13;;;10.18;;
36651;SDS011;53334;51.976;20.144;2022-09-09T12:12:33;14.65;;;9.32;;
36651;SDS011;53334;51.976;20.144;2022-09-09T12:15:23;16.95;;;10.60;;
36651;SDS011;53334;51.976;20.144;2022-09-09T12:18:00;14.85;;;10.90;;
36651;SDS011;53334;51.976;20.144;2022-09-09T12:20:35;23.35;;;9.13;;
36651;SDS011;53334;51.976;20.144;2022-09-09T12:23:15;20.10;;;10.00;;
36651;SDS011;53334;51.976;20.144;2022-09-09T12:26:01;14.90;;;9.88;;
36651;SDS011;53334;51.976;20.144;2022-09-09T12:28:53;13.68;;;9.90;;
36651;SDS011;53334;51.976;20.144;2022-09-09T12:31:38;15.20;;;9.60;;
36651;SDS011;53334;51.976;20.144;2022-09-09T12:34:18;23.52;;;9.50;;
36651;SDS011;53334;51.976;20.144;2022-09-09T12:37:15;16.02;;;8.45;;
36651;SDS011;53334;51.976;20.144;2022-09-09T12:39:56;12.57;;;8.95;;
36651;SDS011;53334;51.976;20.144;2022-09-09T12:42:39;15.10;;;8.75;;
36651;SDS011;53334;51.976;20.144;2022-09-09T12:45:17;13.20;;;8.32;;
36651;SDS011;53334;51.976;20.144;2022-09-09T12:47:53;13.45;;;9.48;;
36651;SDS011;53334;51.976;20.144;2022-09-09T12:50:30;16.38;;;9.57;;
36651;SDS011;53334;51.976;20.144;2022-09-09T12:53:07;18.23;;;10.00;;
36651;SDS011;53334;51.976;20.144;2022-09-09T12:55:50;18.58;;;8.95;;
36651;SDS011;53334;51.976;20.144;2022-09-09T12:58:26;12.45;;;8.98;;
36651;SDS011;53334;51.976;20.144;2022-09-09T13:01:05;13.98;;;9.30;;
36651;SDS011;53334;51.976;20.144;2022-09-09T13:03:42;13.15;;;8.85;;
36651;SDS011;53334;51.976;20.144;2022-09-09T13:06:20;12.52;;;9.85;;
36651;SDS011;53334;51.976;20.144;2022-09-09T13:09:00;14.90;;;9.45;;
36651;SDS011;53334;51.976;20.144;2022-09-09T13:11:37;18.67;;;10.00;;
36651;SDS011;53334;51.976;20.144;2022-09-09T13:14:15;11.52;;;8.35;;
36651;SDS011;53334;51.976;20.144;2022-09-09T13:16:55;13.38;;;9.73;;
36651;SDS011;53334;51.976;20.144;2022-09-09T13:19:32;11.73;;;9.48;;
36651;SDS011;53334;51.976;20.144;2022-09-09T13:22:12;16.70;;;9.73;;
36651;SDS011;53334;51.976;20.144;2022-09-09T13:24:48;12.25;;;9.10;;
36651;SDS011;53334;51.976;20.144;2022-09-09T13:27:36;11.65;;;9.20;;
36651;SDS011;53334;51.976;20.144;2022-09-09T13:30:22;12.65;;;8.00;;
36651;SDS011;53334;51.976;20.144;2022-09-09T13:33:05;14.75;;;9.10;;
36651;SDS011;53334;51.976;20.144;2022-09-09T13:35:55;11.65;;;9.02;;
36651;SDS011;53334;51.976;20.144;2022-09-09T13:38:31;10.73;;;7.93;;
36651;SDS011;53334;51.976;20.144;2022-09-09T13:41:08;16.95;;;8.93;;
36651;SDS011;53334;51.976;20.144;2022-09-09T13:43:46;12.90;;;8.32;;
36651;SDS011;53334;51.976;20.144;2022-09-09T13:46:28;14.50;;;8.95;;
36651;SDS011;53334;51.976;20.144;2022-09-09T13:49:18;9.82;;;8.05;;
36651;SDS011;53334;51.976;20.144;2022-09-09T13:52:02;10.07;;;8.07;;
36651;SDS011;53334;51.976;20.144;2022-09-09T13:54:39;8.48;;;7.57;;
36651;SDS011;53334;51.976;20.144;2022-09-09T13:57:15;10.38;;;8.35;;
36651;SDS011;53334;51.976;20.144;2022-09-09T13:59:52;8.98;;;7.45;;
36651;SDS011;53334;51.976;20.144;2022-09-09T14:02:36;12.80;;;7.75;;
36651;SDS011;53334;51.976;20.144;2022-09-09T14:05:13;10.32;;;7.88;;
36651;SDS011;53334;51.976;20.144;2022-09-09T14:07:47;9.10;;;7.93;;
36651;SDS011;53334;51.976;20.144;2022-09-09T14:10:24;13.98;;;8.20;;
36651;SDS011;53334;51.976;20.144;2022-09-09T14:12:58;16.33;;;8.38;;
36651;SDS011;53334;51.976;20.144;2022-09-09T14:15:33;11.88;;;8.73;;
36651;SDS011;53334;51.976;20.144;2022-09-09T14:18:09;9.00;;;7.45;;
36651;SDS011;53334;51.976;20.144;2022-09-09T14:20:44;13.35;;;8.00;;
36651;SDS011;53334;51.976;20.144;2022-09-09T14:23:18;12.50;;;7.65;;
36651;SDS011;53334;51.976;20.144;2022-09-09T14:25:53;12.23;;;8.55;;
36651;SDS011;53334;51.976;20.144;2022-09-09T14:31:22;13.25;;;8.27;;
36651;SDS011;53334;51.976;20.144;2022-09-09T14:33:57;12.50;;;8.05;;
36651;SDS011;53334;51.976;20.144;2022-09-09T14:36:31;9.23;;;7.60;;
36651;SDS011;53334;51.976;20.144;2022-09-09T14:39:05;15.00;;;8.02;;
36651;SDS011;53334;51.976;20.144;2022-09-09T14:41:39;21.08;;;7.32;;
36651;SDS011;53334;51.976;20.144;2022-09-09T14:46:49;18.33;;;7.75;;
36651;SDS011;53334;51.976;20.144;2022-09-09T14:49:23;13.02;;;8.40;;
36651;SDS011;53334;51.976;20.144;2022-09-09T14:51:57;13.02;;;8.05;;
36651;SDS011;53334;51.976;20.144;2022-09-09T14:57:04;11.05;;;7.85;;
36651;SDS011;53334;51.976;20.144;2022-09-09T14:59:38;11.10;;;8.00;;
36651;SDS011;53334;51.976;20.144;2022-09-09T15:02:14;11.27;;;7.90;;
36651;SDS011;53334;51.976;20.144;2022-09-09T15:04:48;8.25;;;7.00;;
36651;SDS011;53334;51.976;20.144;2022-09-09T15:07:24;13.10;;;7.57;;
36651;SDS011;53334;51.976;20.144;2022-09-09T15:09:59;9.05;;;7.70;;
36651;SDS011;53334;51.976;20.144;2022-09-09T15:12:33;9.98;;;7.55;;
36651;SDS011;53334;51.976;20.144;2022-09-09T15:15:08;10.57;;;7.50;;
36651;SDS011;53334;51.976;20.144;2022-09-09T15:17:43;11.50;;;7.30;;
36651;SDS011;53334;51.976;20.144;2022-09-09T15:20:17;7.95;;;6.72;;
36651;SDS011;53334;51.976;20.144;2022-09-09T15:22:51;12.43;;;7.65;;
36651;SDS011;53334;51.976;20.144;2022-09-09T15:25:25;12.25;;;7.30;;
36651;SDS011;53334;51.976;20.144;2022-09-09T15:30:33;8.80;;;6.80;;
36651;SDS011;53334;51.976;20.144;2022-09-09T15:33:08;10.07;;;7.40;;
36651;SDS011;53334;51.976;20.144;2022-09-09T15:35:44;12.13;;;6.90;;
36651;SDS011;53334;51.976;20.144;2022-09-09T15:38:18;12.43;;;7.18;;
36651;SDS011;53334;51.976;20.144;2022-09-09T15:40:53;9.52;;;7.10;;
36651;SDS011;53334;51.976;20.144;2022-09-09T15:43:27;11.30;;;7.45;;
36651;SDS011;53334;51.976;20.144;2022-09-09T15:48:49;15.45;;;7.47;;
36651;SDS011;53334;51.976;20.144;2022-09-09T15:51:25;18.13;;;7.63;;
36651;SDS011;53334;51.976;20.144;2022-09-09T15:54:16;13.10;;;7.57;;
36651;SDS011;53334;51.976;20.144;2022-09-09T15:56:53;12.52;;;7.05;;